createdAt,value
2023-06-14T00:00:49.665Z,19.50
2023-06-14T00:03:18.625Z,19.60
2023-06-14T00:05:47.390Z,19.60
2023-06-14T00:08:15.716Z,19.70
2023-06-14T00:10:43.088Z,19.70
2023-06-14T00:13:10.726Z,19.80
2023-06-14T00:15:37.525Z,19.70
2023-06-14T00:18:05.875Z,19.80
2023-06-14T00:20:34.440Z,19.80
2023-06-14T00:23:01.930Z,19.80
2023-06-14T00:25:30.060Z,19.80
2023-06-14T00:27:58.668Z,19.70
2023-06-14T00:30:26.276Z,19.60
2023-06-14T00:32:53.286Z,19.70
2023-06-14T00:35:20.257Z,19.60
2023-06-14T00:37:46.953Z,19.60
2023-06-14T00:40:14.206Z,19.50
2023-06-14T00:42:41.309Z,19.50
2023-06-14T00:45:08.482Z,19.40
2023-06-14T00:47:38.379Z,19.40
2023-06-14T00:50:08.269Z,19.40
2023-06-14T00:52:35.652Z,19.40
2023-06-14T00:55:02.619Z,19.40
2023-06-14T00:57:33.286Z,19.30
2023-06-14T01:00:00.066Z,19.30
2023-06-14T01:02:26.928Z,19.20
2023-06-14T01:04:54.584Z,19.20
2023-06-14T01:07:30.872Z,19.20
2023-06-14T01:10:28.847Z,19.20
2023-06-14T01:13:21.348Z,19.20
2023-06-14T01:15:48.900Z,19.20
2023-06-14T01:18:18.267Z,19.10
2023-06-14T01:20:51.867Z,19.00
2023-06-14T01:23:22.958Z,19.10
2023-06-14T01:25:53.777Z,19.10
2023-06-14T01:28:22.775Z,19.00
2023-06-14T01:30:54.180Z,19.10
2023-06-14T01:33:23.831Z,19.10
2023-06-14T01:35:55.771Z,18.90
2023-06-14T01:38:28.321Z,18.90
2023-06-14T01:40:57.934Z,18.80
2023-06-14T01:43:27.802Z,18.80
2023-06-14T01:45:56.792Z,18.70
2023-06-14T01:48:24.344Z,18.70
2023-06-14T01:50:51.175Z,18.60
2023-06-14T01:53:17.916Z,18.50
2023-06-14T01:55:45.476Z,18.50
2023-06-14T01:58:12.372Z,18.40
2023-06-14T02:00:39.077Z,18.40
2023-06-14T02:03:05.919Z,18.40
2023-06-14T02:05:35.573Z,18.40
2023-06-14T02:08:02.357Z,18.40
2023-06-14T02:10:29.041Z,18.30
2023-06-14T02:12:55.738Z,18.30
2023-06-14T02:15:22.962Z,18.30
2023-06-14T02:17:50.560Z,18.30
2023-06-14T02:20:18.044Z,18.30
2023-06-14T02:22:45.956Z,18.30
2023-06-14T02:25:12.715Z,18.40
2023-06-14T02:27:41.369Z,18.40
2023-06-14T02:30:08.586Z,18.40
2023-06-14T02:32:36.548Z,18.40
2023-06-14T02:35:04.602Z,18.40
2023-06-14T02:37:31.407Z,18.30
2023-06-14T02:39:58.141Z,18.30
2023-06-14T02:42:24.869Z,18.30
2023-06-14T02:44:52.374Z,18.30
2023-06-14T02:47:19.963Z,18.30
2023-06-14T02:49:49.420Z,18.20
2023-06-14T02:52:16.512Z,18.10
2023-06-14T02:54:43.431Z,18.10
2023-06-14T02:57:11.639Z,18.10
2023-06-14T02:59:38.936Z,18.10
2023-06-14T03:02:06.129Z,18.10
2023-06-14T03:04:38.158Z,18.10
2023-06-14T03:07:11.854Z,18.10
2023-06-14T03:09:41.076Z,18.00
2023-06-14T03:12:10.955Z,18.00
2023-06-14T03:14:37.842Z,18.00
2023-06-14T03:17:05.949Z,17.90
2023-06-14T03:19:34.717Z,17.90
2023-06-14T03:22:01.519Z,17.90
2023-06-14T03:24:32.777Z,17.90
2023-06-14T03:26:59.827Z,17.90
2023-06-14T03:29:29.322Z,17.80
2023-06-14T03:32:03.187Z,17.90
2023-06-14T03:34:42.292Z,17.80
2023-06-14T03:37:13.022Z,17.80
2023-06-14T03:39:46.925Z,17.80
2023-06-14T03:42:17.105Z,17.80
2023-06-14T03:44:45.537Z,17.80
2023-06-14T03:47:12.347Z,17.80
2023-06-14T03:49:39.189Z,17.80
2023-06-14T03:52:06.414Z,17.70
2023-06-14T03:57:04.616Z,17.70
2023-06-14T03:59:31.358Z,17.70
2023-06-14T04:01:59.247Z,17.70
2023-06-14T04:04:29.668Z,17.70
2023-06-14T04:06:59.673Z,17.70
2023-06-14T04:09:26.412Z,17.70
2023-06-14T04:11:53.700Z,17.70
2023-06-14T04:14:20.912Z,17.60
2023-06-14T04:16:48.861Z,17.60
2023-06-14T04:19:17.708Z,17.60
2023-06-14T04:21:44.534Z,17.60
2023-06-14T04:24:15.008Z,17.70
2023-06-14T04:26:52.771Z,17.70
2023-06-14T04:29:20.456Z,17.70
2023-06-14T04:31:57.193Z,17.80
2023-06-14T04:34:24.732Z,17.80
2023-06-14T04:36:56.796Z,17.80
2023-06-14T04:39:29.006Z,17.90
2023-06-14T04:41:58.062Z,17.90
2023-06-14T04:44:31.067Z,17.90
2023-06-14T04:46:59.725Z,17.90
2023-06-14T04:49:28.654Z,17.90
2023-06-14T04:52:00.330Z,17.90
2023-06-14T04:54:32.413Z,17.90
2023-06-14T04:56:59.843Z,18.00
2023-06-14T04:59:27.819Z,18.00
2023-06-14T05:01:55.262Z,18.10
2023-06-14T05:04:23.468Z,18.20
2023-06-14T05:06:50.555Z,18.10
2023-06-14T05:09:18.120Z,18.20
2023-06-14T05:11:45.659Z,18.30
2023-06-14T05:14:13.369Z,18.50
2023-06-14T05:16:40.881Z,18.50
2023-06-14T05:19:08.105Z,18.60
2023-06-14T05:21:40.492Z,18.70
2023-06-14T05:24:10.289Z,18.90
2023-06-14T05:26:37.293Z,19.10
2023-06-14T05:29:04.181Z,19.20
2023-06-14T05:31:31.142Z,19.40
2023-06-14T05:33:57.998Z,19.70
2023-06-14T05:36:24.788Z,19.70
2023-06-14T05:38:58.585Z,19.90
2023-06-14T05:41:28.582Z,20.20
2023-06-14T05:43:56.495Z,20.30
2023-06-14T05:46:26.439Z,20.30
2023-06-14T05:48:53.884Z,20.40
2023-06-14T05:51:20.807Z,20.60
2023-06-14T05:53:48.038Z,20.80
2023-06-14T05:56:15.436Z,21.20
2023-06-14T05:58:42.435Z,21.40
2023-06-14T06:01:09.126Z,21.50
2023-06-14T06:03:36.109Z,21.40
2023-06-14T06:06:04.084Z,21.60
2023-06-14T06:08:31.020Z,21.80
2023-06-14T06:10:57.915Z,22.10
2023-06-14T06:13:24.858Z,22.30
2023-06-14T06:15:51.733Z,22.50
2023-06-14T06:18:18.527Z,22.70
2023-06-14T06:20:46.236Z,23.00
2023-06-14T06:23:12.896Z,23.00
2023-06-14T06:25:39.651Z,23.20
2023-06-14T06:28:06.574Z,23.20
2023-06-14T06:30:33.324Z,23.20
2023-06-14T06:33:00.368Z,23.30
2023-06-14T06:35:27.085Z,23.40
2023-06-14T06:37:53.926Z,23.50
2023-06-14T06:40:20.692Z,23.70
2023-06-14T06:42:47.454Z,23.70
2023-06-14T06:45:15.109Z,23.90
2023-06-14T06:47:42.147Z,24.20
2023-06-14T06:50:09.888Z,24.20
2023-06-14T06:52:36.752Z,24.00
2023-06-14T06:55:04.135Z,23.90
2023-06-14T06:57:30.846Z,23.70
2023-06-14T06:59:58.850Z,23.80
2023-06-14T07:02:25.764Z,23.90
2023-06-14T07:04:52.555Z,23.90
2023-06-14T07:07:19.612Z,23.90
2023-06-14T07:09:46.825Z,23.80
2023-06-14T07:12:13.621Z,23.80
2023-06-14T07:14:40.499Z,24.10
2023-06-14T07:17:07.267Z,24.10
2023-06-14T07:19:35.825Z,24.20
2023-06-14T07:22:02.516Z,24.20
2023-06-14T07:24:29.707Z,24.60
2023-06-14T07:26:57.265Z,24.80
2023-06-14T07:29:24.006Z,24.60
2023-06-14T07:31:50.732Z,24.60
2023-06-14T07:34:17.428Z,24.50
2023-06-14T07:36:45.530Z,24.60
2023-06-14T07:39:12.393Z,24.90
2023-06-14T07:41:39.124Z,24.80
2023-06-14T07:44:05.950Z,24.50
2023-06-14T07:46:32.677Z,24.70
2023-06-14T07:48:59.494Z,25.20
2023-06-14T07:51:26.268Z,25.60
2023-06-14T07:53:53.029Z,25.30
2023-06-14T07:56:19.736Z,25.40
2023-06-14T07:58:46.441Z,25.30
2023-06-14T08:01:13.323Z,25.20
2023-06-14T08:03:40.250Z,25.10
2023-06-14T08:06:08.266Z,25.00
2023-06-14T08:08:35.070Z,25.10
2023-06-14T08:11:01.806Z,25.50
2023-06-14T08:13:28.667Z,25.80
2023-06-14T08:15:56.353Z,25.90
2023-06-14T08:18:23.081Z,26.20
2023-06-14T08:20:50.472Z,26.00
2023-06-14T08:23:20.039Z,25.90
2023-06-14T08:25:46.851Z,25.90
2023-06-14T08:28:13.549Z,26.00
2023-06-14T08:30:40.348Z,26.10
2023-06-14T08:33:16.722Z,25.80
2023-06-14T08:35:44.433Z,25.80
2023-06-14T08:38:13.072Z,26.10
2023-06-14T08:40:42.917Z,26.40
2023-06-14T08:43:09.840Z,26.10
2023-06-14T08:45:36.619Z,26.10
2023-06-14T08:48:04.052Z,25.80
2023-06-14T08:50:33.768Z,25.50
2023-06-14T08:53:04.145Z,25.30
2023-06-14T08:55:36.531Z,25.40
2023-06-14T08:58:05.854Z,25.20
2023-06-14T09:00:34.419Z,25.00
2023-06-14T09:03:01.893Z,25.20
2023-06-14T09:05:29.270Z,25.30
2023-06-14T09:07:57.112Z,25.40
2023-06-14T09:10:26.858Z,25.30
2023-06-14T09:12:54.495Z,25.40
2023-06-14T09:15:21.646Z,25.20
2023-06-14T09:17:49.133Z,25.20
2023-06-14T09:20:20.195Z,25.10
2023-06-14T09:22:47.792Z,24.70
2023-06-14T09:25:29.619Z,24.80
2023-06-14T09:28:07.138Z,24.90
2023-06-14T09:30:33.850Z,25.10
2023-06-14T09:33:02.275Z,24.80
2023-06-14T09:35:32.001Z,24.90
2023-06-14T09:37:58.774Z,25.30
2023-06-14T09:40:25.982Z,25.30
2023-06-14T09:42:53.494Z,25.50
2023-06-14T09:45:22.770Z,25.60
2023-06-14T09:48:06.374Z,25.50
2023-06-14T09:50:35.483Z,25.50
2023-06-14T09:53:08.628Z,25.70
2023-06-14T09:55:41.192Z,25.60
2023-06-14T09:58:10.748Z,25.60
2023-06-14T10:00:39.881Z,25.60
2023-06-14T10:03:21.139Z,25.40
2023-06-14T10:05:51.094Z,25.40
2023-06-14T10:08:21.264Z,25.30
2023-06-14T10:10:48.699Z,25.20
2023-06-14T10:13:16.277Z,25.30
2023-06-14T10:16:13.544Z,25.40
2023-06-14T10:18:53.348Z,25.20
2023-06-14T10:21:32.678Z,25.00
2023-06-14T10:24:06.032Z,25.20
2023-06-14T10:26:32.797Z,25.30
2023-06-14T10:29:02.834Z,25.40
2023-06-14T10:31:50.468Z,25.40
2023-06-14T10:34:25.848Z,25.40
2023-06-14T10:37:05.440Z,25.50
2023-06-14T10:39:33.302Z,25.40
2023-06-14T10:42:05.347Z,25.40
2023-06-14T10:44:34.912Z,25.40
2023-06-14T10:47:02.454Z,25.30
2023-06-14T10:49:43.276Z,25.20
2023-06-14T10:52:19.554Z,25.10
2023-06-14T10:55:10.522Z,25.10
2023-06-14T10:57:52.960Z,25.20
2023-06-14T11:00:26.936Z,25.10
2023-06-14T11:03:37.689Z,25.20
2023-06-14T11:06:14.762Z,25.20
2023-06-14T11:09:14.099Z,25.40
2023-06-14T11:11:43.679Z,25.60
2023-06-14T11:14:11.478Z,25.70
2023-06-14T11:16:38.458Z,26.10
2023-06-14T11:19:05.308Z,26.30
2023-06-14T11:21:34.213Z,26.50
2023-06-14T11:24:01.034Z,26.50
2023-06-14T11:26:29.860Z,26.40
2023-06-14T11:28:58.435Z,26.20
2023-06-14T11:31:25.997Z,26.00
2023-06-14T11:33:58.007Z,25.70
2023-06-14T11:36:30.657Z,25.60
2023-06-14T11:39:01.617Z,25.50
2023-06-14T11:41:34.335Z,25.60
2023-06-14T11:44:03.092Z,25.40
2023-06-14T11:46:29.921Z,25.30
2023-06-14T11:48:56.687Z,25.30
2023-06-14T11:51:23.382Z,25.60
2023-06-14T11:53:50.337Z,25.70
2023-06-14T11:56:18.472Z,25.90
2023-06-14T11:58:45.605Z,26.00
2023-06-14T12:01:18.788Z,25.90
2023-06-14T12:03:52.564Z,25.80
2023-06-14T12:06:34.393Z,25.70
2023-06-14T12:09:04.776Z,25.90
2023-06-14T12:11:36.442Z,25.90
2023-06-14T12:14:05.415Z,25.80
2023-06-14T12:16:39.163Z,25.70
2023-06-14T12:19:17.580Z,25.60
2023-06-14T12:21:51.809Z,25.80
2023-06-14T12:24:18.607Z,25.90
2023-06-14T12:26:45.715Z,26.00
2023-06-14T12:29:14.218Z,26.10
2023-06-14T12:31:41.581Z,26.20
2023-06-14T12:34:08.806Z,26.30
2023-06-14T12:36:41.092Z,26.10
2023-06-14T12:39:09.308Z,26.10
2023-06-14T12:41:36.018Z,26.20
2023-06-14T12:44:05.141Z,26.30
2023-06-14T12:46:33.116Z,26.30
2023-06-14T12:48:59.935Z,26.00
2023-06-14T12:51:26.765Z,25.90
2023-06-14T12:53:53.448Z,25.80
2023-06-14T12:56:21.991Z,25.80
2023-06-14T12:58:49.365Z,25.80
2023-06-14T13:01:16.028Z,25.70
2023-06-14T13:03:42.841Z,25.70
2023-06-14T13:06:09.578Z,25.80
2023-06-14T13:08:36.330Z,25.90
2023-06-14T13:11:03.037Z,25.70
2023-06-14T13:13:29.705Z,25.60
2023-06-14T13:15:56.681Z,25.70
2023-06-14T13:18:23.366Z,25.50
2023-06-14T13:20:50.388Z,25.40
2023-06-14T13:23:17.273Z,25.20
2023-06-14T13:25:44.134Z,25.20
2023-06-14T13:28:10.865Z,25.40
2023-06-14T13:30:38.313Z,25.60
2023-06-14T13:33:05.017Z,25.60
2023-06-14T13:35:31.804Z,25.70
2023-06-14T13:37:58.453Z,25.60
2023-06-14T13:40:25.268Z,25.80
2023-06-14T13:42:52.020Z,25.80
2023-06-14T13:45:19.009Z,25.60
2023-06-14T13:47:49.396Z,25.80
2023-06-14T13:50:17.293Z,25.90
2023-06-14T13:52:44.253Z,25.90
2023-06-14T13:55:10.955Z,25.90
2023-06-14T13:57:37.629Z,25.80
2023-06-14T14:00:04.792Z,26.00
2023-06-14T14:02:40.848Z,26.10
2023-06-14T14:05:07.972Z,26.10
2023-06-14T14:07:35.733Z,25.90
2023-06-14T14:10:02.946Z,25.80
2023-06-14T14:12:29.687Z,25.60
2023-06-14T14:14:57.098Z,25.50
2023-06-14T14:17:24.233Z,25.60
2023-06-14T14:19:50.970Z,25.90
2023-06-14T14:22:17.664Z,25.80
2023-06-14T14:24:44.359Z,25.60
2023-06-14T14:27:11.546Z,25.70
2023-06-14T14:29:38.374Z,25.70
2023-06-14T14:32:05.533Z,25.80
2023-06-14T14:34:32.241Z,25.80
2023-06-14T14:36:58.987Z,25.60
2023-06-14T14:39:25.833Z,25.50
2023-06-14T14:41:52.664Z,25.40
2023-06-14T14:44:20.365Z,25.20
2023-06-14T14:46:47.092Z,25.10
2023-06-14T14:49:14.055Z,25.20
2023-06-14T14:51:40.919Z,25.40
2023-06-14T14:54:07.788Z,25.50
2023-06-14T14:56:36.155Z,25.60
2023-06-14T14:59:03.925Z,25.70
2023-06-14T15:01:30.698Z,25.70
2023-06-14T15:03:59.744Z,25.50
2023-06-14T15:06:26.920Z,25.20
2023-06-14T15:08:53.742Z,25.00
2023-06-14T15:11:20.519Z,24.90
2023-06-14T15:13:48.485Z,24.90
2023-06-14T15:16:15.491Z,25.00
2023-06-14T15:18:42.236Z,25.00
2023-06-14T15:21:08.950Z,24.90
2023-06-14T15:23:35.741Z,25.20
2023-06-14T15:26:02.634Z,25.20
2023-06-14T15:28:29.893Z,25.20
2023-06-14T15:30:57.663Z,25.10
2023-06-14T15:33:24.489Z,25.20
2023-06-14T15:35:51.287Z,25.10
2023-06-14T15:38:18.068Z,25.20
2023-06-14T15:40:44.725Z,25.20
2023-06-14T15:43:11.397Z,25.10
2023-06-14T15:45:38.532Z,25.00
2023-06-14T15:48:05.732Z,25.10
2023-06-14T15:50:32.713Z,25.30
2023-06-14T15:52:59.472Z,25.30
2023-06-14T15:55:26.197Z,25.30
2023-06-14T15:57:52.857Z,25.30
2023-06-14T16:00:20.512Z,25.20
2023-06-14T16:02:47.310Z,25.20
2023-06-14T16:05:14.493Z,25.20
2023-06-14T16:07:41.412Z,25.30
2023-06-14T16:10:08.571Z,25.50
2023-06-14T16:12:35.259Z,25.60
2023-06-14T16:15:02.068Z,25.50
2023-06-14T16:17:28.838Z,25.60
2023-06-14T16:19:56.202Z,25.60
2023-06-14T16:22:22.895Z,25.50
2023-06-14T16:24:49.622Z,25.60
2023-06-14T16:27:18.725Z,25.70
2023-06-14T16:29:46.554Z,25.50
2023-06-14T16:32:13.302Z,25.50
2023-06-14T16:34:40.017Z,25.50
2023-06-14T16:37:06.812Z,25.40
2023-06-14T16:39:34.057Z,25.40
2023-06-14T16:42:00.845Z,25.40
2023-06-14T16:44:27.557Z,25.40
2023-06-14T16:46:54.316Z,25.40
2023-06-14T16:49:21.059Z,25.40
2023-06-14T16:51:47.721Z,25.30
2023-06-14T16:54:14.483Z,25.10
2023-06-14T16:56:41.309Z,25.00
2023-06-14T16:59:08.077Z,24.90
2023-06-14T17:01:35.553Z,24.90
2023-06-14T17:04:02.493Z,24.90
2023-06-14T17:06:29.542Z,24.90
2023-06-14T17:08:56.322Z,24.90
2023-06-14T17:11:23.897Z,24.90
2023-06-14T17:13:51.784Z,24.90
2023-06-14T17:16:19.691Z,24.90
2023-06-14T17:18:46.466Z,25.00
2023-06-14T17:21:15.065Z,25.10
2023-06-14T17:23:41.872Z,25.10
2023-06-14T17:26:08.593Z,25.10
2023-06-14T17:28:36.922Z,25.00
2023-06-14T17:31:04.229Z,25.10
2023-06-14T17:33:31.099Z,25.00
2023-06-14T17:35:58.043Z,24.90
2023-06-14T17:38:27.537Z,24.90
2023-06-14T17:40:54.392Z,24.90
2023-06-14T17:43:22.355Z,24.90
2023-06-14T17:45:49.143Z,24.90
2023-06-14T17:48:16.078Z,24.70
2023-06-14T17:50:42.879Z,24.70
2023-06-14T17:53:09.709Z,24.70
2023-06-14T17:55:36.395Z,24.70
2023-06-14T17:58:04.613Z,24.70
2023-06-14T18:00:31.299Z,24.70
2023-06-14T18:02:59.434Z,24.80
2023-06-14T18:05:26.916Z,24.80
2023-06-14T18:07:54.871Z,24.80
2023-06-14T18:10:22.679Z,24.80
2023-06-14T18:12:49.389Z,24.80
2023-06-14T18:15:16.459Z,24.70
2023-06-14T18:17:43.423Z,24.80
2023-06-14T18:20:10.604Z,24.80
2023-06-14T18:22:37.406Z,24.70
2023-06-14T18:25:04.707Z,24.60
2023-06-14T18:27:31.390Z,24.50
2023-06-14T18:29:58.096Z,24.40
2023-06-14T18:32:24.812Z,24.30
2023-06-14T18:34:51.738Z,24.30
2023-06-14T18:37:18.419Z,24.30
2023-06-14T18:39:45.347Z,24.40
2023-06-14T18:42:12.673Z,24.40
2023-06-14T18:44:39.527Z,24.40
2023-06-14T18:47:06.564Z,24.40
2023-06-14T18:49:33.416Z,24.30
2023-06-14T18:52:00.206Z,24.30
2023-06-14T18:54:27.439Z,24.20
2023-06-14T18:56:54.397Z,24.20
2023-06-14T18:59:21.294Z,24.00
2023-06-14T19:01:48.023Z,23.90
2023-06-14T19:04:14.791Z,23.70
2023-06-14T19:06:44.466Z,23.60
2023-06-14T19:09:12.805Z,23.50
2023-06-14T19:11:41.524Z,23.40
2023-06-14T19:14:08.205Z,23.30
2023-06-14T19:16:34.974Z,23.20
2023-06-14T19:19:01.810Z,23.20
2023-06-14T19:21:28.555Z,23.10
2023-06-14T19:23:57.114Z,23.10
2023-06-14T19:26:26.215Z,23.10
2023-06-14T19:28:59.332Z,23.00
2023-06-14T19:31:26.288Z,22.90
2023-06-14T19:33:53.697Z,23.00
2023-06-14T19:36:21.356Z,22.90
2023-06-14T19:38:48.049Z,23.00
2023-06-14T19:41:17.245Z,23.00
2023-06-14T19:43:44.356Z,23.00
2023-06-14T19:46:11.208Z,22.90
2023-06-14T19:48:38.174Z,22.80
2023-06-14T19:51:04.946Z,22.80
2023-06-14T19:53:32.352Z,22.70
2023-06-14T19:55:59.162Z,22.70
2023-06-14T19:58:26.000Z,22.60
2023-06-14T20:00:52.676Z,22.60
2023-06-14T20:03:19.364Z,22.50
2023-06-14T20:05:46.139Z,22.40
2023-06-14T20:08:12.907Z,22.40
2023-06-14T20:10:40.378Z,22.40
2023-06-14T20:13:08.551Z,22.20
2023-06-14T20:15:35.231Z,22.20
2023-06-14T20:18:02.013Z,22.10
2023-06-14T20:20:28.745Z,22.10
2023-06-14T20:22:55.426Z,22.00
2023-06-14T20:25:22.135Z,22.00
2023-06-14T20:27:49.285Z,22.00
2023-06-14T20:30:16.369Z,21.90
2023-06-14T20:32:43.419Z,21.80
2023-06-14T20:35:10.229Z,21.70
2023-06-14T20:37:36.915Z,21.40
2023-06-14T20:40:06.943Z,21.30
2023-06-14T20:42:34.421Z,21.20
2023-06-14T20:45:01.226Z,21.00
2023-06-14T20:47:28.087Z,21.00
2023-06-14T20:49:54.868Z,20.90
2023-06-14T20:52:21.657Z,20.80
2023-06-14T20:54:48.581Z,20.70
2023-06-14T20:57:18.468Z,20.50
2023-06-14T20:59:45.666Z,20.40
2023-06-14T21:02:16.541Z,20.40
2023-06-14T21:04:44.127Z,20.50
2023-06-14T21:07:11.015Z,20.50
2023-06-14T21:09:38.158Z,20.60
2023-06-14T21:12:05.514Z,20.60
2023-06-14T21:14:33.017Z,20.60
2023-06-14T21:17:00.101Z,20.60
2023-06-14T21:19:27.195Z,20.50
2023-06-14T21:21:56.003Z,20.60
2023-06-14T21:24:22.780Z,20.50
2023-06-14T21:26:50.293Z,20.50
2023-06-14T21:29:17.249Z,20.40
2023-06-14T21:31:44.079Z,20.40
2023-06-14T21:34:10.786Z,20.30
2023-06-14T21:36:37.501Z,20.30
2023-06-14T21:39:04.636Z,20.30
2023-06-14T21:41:31.500Z,20.30
2023-06-14T21:43:58.243Z,20.30
2023-06-14T21:46:25.238Z,20.30
2023-06-14T21:48:52.005Z,20.30
2023-06-14T21:51:18.693Z,20.30
2023-06-14T21:53:48.489Z,20.20
2023-06-14T21:56:15.631Z,20.20
2023-06-14T21:58:42.435Z,20.20
2023-06-14T22:01:09.202Z,20.10
2023-06-14T22:08:42.344Z,20.00
2023-06-14T22:11:10.731Z,19.90
2023-06-14T22:13:39.518Z,19.90
2023-06-14T22:16:11.505Z,19.90
2023-06-14T22:18:39.114Z,19.80
2023-06-14T22:21:05.921Z,19.80
2023-06-14T22:23:38.653Z,19.80
2023-06-14T22:26:09.075Z,19.70
2023-06-14T22:28:42.573Z,19.60
2023-06-14T22:31:11.477Z,19.60
2023-06-14T22:33:46.592Z,19.60
2023-06-14T22:36:17.921Z,19.50
2023-06-14T22:38:46.467Z,19.50
2023-06-14T22:41:14.032Z,19.50
2023-06-14T22:43:44.335Z,19.50
2023-06-14T22:46:20.174Z,19.30
2023-06-14T22:48:50.893Z,19.30
2023-06-14T22:51:19.039Z,19.30
2023-06-14T22:53:46.313Z,19.30
2023-06-14T22:56:15.644Z,19.20
2023-06-14T22:58:44.238Z,19.20
2023-06-14T23:01:16.863Z,19.20
2023-06-14T23:03:48.335Z,19.10
2023-06-14T23:06:17.875Z,19.00
2023-06-14T23:08:45.306Z,18.90
2023-06-14T23:11:14.077Z,18.90
2023-06-14T23:13:42.872Z,18.90
2023-06-14T23:16:09.738Z,18.80
2023-06-14T23:18:37.262Z,18.80
2023-06-14T23:21:06.181Z,18.90
2023-06-14T23:23:37.057Z,18.80
2023-06-14T23:26:06.516Z,18.80
2023-06-14T23:28:36.934Z,18.70
2023-06-14T23:31:08.294Z,18.70
2023-06-14T23:33:36.143Z,18.60
2023-06-14T23:36:04.498Z,18.70
2023-06-14T23:38:31.869Z,18.60
2023-06-14T23:40:59.538Z,18.50
2023-06-14T23:43:27.087Z,18.60
2023-06-14T23:45:56.517Z,18.50
2023-06-14T23:48:27.317Z,18.50
2023-06-14T23:50:54.742Z,18.50
2023-06-14T23:53:25.699Z,18.50
2023-06-14T23:55:54.055Z,18.40
2023-06-14T23:58:21.880Z,18.30
